createdAt,value
2022-09-15T00:08:37.929Z,987.65
2022-09-15T00:18:45.178Z,987.59
2022-09-15T00:28:50.967Z,987.54
2022-09-15T00:38:59.259Z,987.81
2022-09-15T00:49:04.909Z,987.71
2022-09-15T00:59:11.414Z,987.81
2022-09-15T01:09:17.229Z,987.79
2022-09-15T01:19:24.969Z,987.82
2022-09-15T01:29:31.140Z,987.93
2022-09-15T01:39:39.172Z,987.86
2022-09-15T01:49:45.350Z,987.87
2022-09-15T01:59:52.563Z,987.93
2022-09-15T02:09:58.221Z,987.89
2022-09-15T02:20:05.074Z,987.83
2022-09-15T02:30:10.688Z,987.82
2022-09-15T02:40:17.952Z,987.83
2022-09-15T02:50:23.891Z,987.90
2022-09-15T03:00:31.798Z,987.86
2022-09-15T03:10:38.141Z,987.86
2022-09-15T03:20:44.346Z,987.75
2022-09-15T03:30:50.776Z,987.80
2022-09-15T03:40:58.318Z,987.92
2022-09-15T03:51:04.608Z,987.84
2022-09-15T04:01:10.466Z,987.89
2022-09-15T04:11:16.856Z,987.87
2022-09-15T04:21:24.807Z,987.94
2022-09-15T04:31:30.721Z,987.91
2022-09-15T04:41:38.410Z,987.98
2022-09-15T04:51:44.702Z,988.12
2022-09-15T05:01:52.489Z,988.14
2022-09-15T05:11:58.606Z,988.14
2022-09-15T05:22:05.969Z,988.18
2022-09-15T05:32:12.186Z,988.24
2022-09-15T05:42:18.090Z,988.35
2022-09-15T05:52:24.597Z,988.38
2022-09-15T06:02:30.724Z,988.39
2022-09-15T06:12:37.215Z,988.48
2022-09-15T06:22:44.769Z,988.62
2022-09-15T06:32:50.424Z,988.64
2022-09-15T06:42:56.414Z,988.68
2022-09-15T06:53:02.467Z,988.80
2022-09-15T07:03:08.992Z,988.80
2022-09-15T07:13:15.214Z,988.96
2022-09-15T07:23:21.390Z,989.02
2022-09-15T07:33:27.522Z,989.15
2022-09-15T07:43:33.653Z,989.22
2022-09-15T07:53:40.086Z,989.40
2022-09-15T08:03:46.774Z,989.44
2022-09-15T08:13:52.614Z,989.60
2022-09-15T08:23:58.983Z,989.58
2022-09-15T08:34:05.127Z,989.67
2022-09-15T08:44:11.135Z,989.71
2022-09-15T08:54:17.464Z,989.71
2022-09-15T09:04:23.825Z,989.80
2022-09-15T09:14:29.806Z,989.69
2022-09-15T09:24:35.842Z,989.76
2022-09-15T09:34:42.014Z,989.70
2022-09-15T09:44:48.011Z,989.55
2022-09-15T09:54:54.193Z,989.71
2022-09-15T10:05:00.286Z,989.76
2022-09-15T10:15:06.618Z,989.67
2022-09-15T10:25:13.108Z,989.66
2022-09-15T10:35:19.444Z,989.69
2022-09-15T10:45:25.639Z,989.69
2022-09-15T10:55:51.655Z,989.68
2022-09-15T11:05:42.716Z,989.66
2022-09-15T11:15:49.014Z,989.68
2022-09-15T11:25:54.937Z,989.66
2022-09-15T11:36:00.998Z,989.73
2022-09-15T11:46:07.561Z,989.77
2022-09-15T11:56:13.898Z,989.73
2022-09-15T12:06:19.995Z,989.70
2022-09-15T12:16:26.358Z,989.59
2022-09-15T12:26:32.716Z,989.55
2022-09-15T12:36:39.072Z,989.48
2022-09-15T12:46:45.881Z,989.51
2022-09-15T12:56:52.772Z,989.68
2022-09-15T13:06:59.578Z,989.73
2022-09-15T13:17:06.594Z,989.85
2022-09-15T13:27:13.384Z,990.00
2022-09-15T13:47:33.020Z,989.90
2022-09-15T14:07:52.670Z,989.75
2022-09-15T14:17:59.481Z,989.69
2022-09-15T14:28:05.565Z,989.73
2022-09-15T14:38:11.687Z,989.73
2022-09-15T14:48:18.251Z,989.68
2022-09-15T14:58:25.957Z,989.69
2022-09-15T15:08:33.124Z,989.63
2022-09-15T15:18:41.532Z,989.64
2022-09-15T15:28:47.220Z,989.66
2022-09-15T15:38:54.903Z,989.79
2022-09-15T15:49:00.514Z,989.83
2022-09-15T15:59:08.687Z,989.82
2022-09-15T16:09:15.173Z,989.78
2022-09-15T16:19:21.758Z,989.81
2022-09-15T16:29:27.999Z,989.87
2022-09-15T16:39:35.289Z,989.99
2022-09-15T16:49:41.500Z,990.03
2022-09-15T16:59:47.848Z,990.05
2022-09-15T17:09:54.029Z,990.10
2022-09-15T17:21:31.497Z,990.08
2022-09-15T17:31:36.449Z,990.14
2022-09-15T17:41:43.629Z,990.24
2022-09-15T17:51:49.219Z,990.37
2022-09-15T18:01:56.767Z,990.37
2022-09-15T18:12:02.542Z,990.33
2022-09-15T18:22:10.227Z,990.47
2022-09-15T18:32:16.036Z,990.43
2022-09-15T18:42:27.187Z,990.59
2022-09-15T18:52:34.684Z,990.58
2022-09-15T19:02:41.206Z,990.61
2022-09-15T19:12:47.316Z,990.80
2022-09-15T19:22:55.269Z,990.85
2022-09-15T19:33:01.015Z,990.92
2022-09-15T19:43:09.375Z,990.96
2022-09-15T19:53:15.545Z,991.01
2022-09-15T20:03:23.177Z,991.13
2022-09-15T20:13:28.861Z,991.08
2022-09-15T20:23:36.211Z,991.06
2022-09-15T20:33:41.950Z,991.13
2022-09-15T20:43:49.281Z,991.12
2022-09-15T20:53:54.831Z,991.27
2022-09-15T21:04:01.365Z,991.30
2022-09-15T21:14:07.516Z,991.32
2022-09-15T21:24:14.453Z,991.36
2022-09-15T21:34:20.652Z,991.36
2022-09-15T21:44:26.843Z,991.48
2022-09-15T21:54:32.796Z,991.50
2022-09-15T22:04:38.792Z,991.55
2022-09-15T22:14:44.825Z,991.59
2022-09-15T22:24:50.992Z,991.55
2022-09-15T22:34:57.277Z,991.59
2022-09-15T22:45:03.488Z,991.57
2022-09-15T22:55:09.869Z,991.56
2022-09-15T23:05:16.980Z,991.75
2022-09-15T23:15:23.095Z,991.71
2022-09-15T23:25:30.624Z,991.70
2022-09-15T23:35:36.601Z,991.61
2022-09-15T23:45:42.464Z,991.60
2022-09-15T23:55:48.688Z,991.67
